createdAt,value
2022-12-31T00:01:15.414Z,100440.34
2022-12-31T00:03:42.573Z,100453.50
2022-12-31T00:06:17.754Z,100440.09
2022-12-31T00:08:45.083Z,100440.88
2022-12-31T00:11:11.627Z,100444.09
2022-12-31T00:13:38.651Z,100430.16
2022-12-31T00:16:12.408Z,100439.03
2022-12-31T00:18:39.368Z,100437.13
2022-12-31T00:21:09.723Z,100452.44
2022-12-31T00:23:36.834Z,100452.44
2022-12-31T00:26:05.468Z,100460.75
2022-12-31T00:28:32.294Z,100454.28
2022-12-31T00:31:05.584Z,100468.53
2022-12-31T00:33:31.967Z,100458.59
2022-12-31T00:36:06.871Z,100457.78
2022-12-31T00:38:33.369Z,100462.34
2022-12-31T00:40:59.777Z,100459.97
2022-12-31T00:43:26.198Z,100466.94
2022-12-31T00:45:52.612Z,100463.44
2022-12-31T00:48:19.019Z,100473.91
2022-12-31T00:50:45.977Z,100472.56
2022-12-31T00:53:12.369Z,100472.06
2022-12-31T00:55:38.687Z,100466.41
2022-12-31T00:58:05.095Z,100461.59
2022-12-31T01:00:31.452Z,100458.66
2022-12-31T01:02:57.858Z,100468.03
2022-12-31T01:05:24.407Z,100461.06
2022-12-31T01:07:50.749Z,100467.25
2022-12-31T01:10:37.110Z,100470.50
2022-12-31T01:13:03.766Z,100458.72
2022-12-31T01:15:35.324Z,100463.84
2022-12-31T01:18:02.728Z,100464.13
2022-12-31T01:20:29.637Z,100469.75
2022-12-31T01:22:55.992Z,100466.28
2022-12-31T01:25:22.430Z,100470.06
2022-12-31T01:27:48.808Z,100465.78
2022-12-31T01:30:15.208Z,100455.59
2022-12-31T01:32:41.619Z,100472.28
2022-12-31T01:35:08.391Z,100465.00
2022-12-31T01:37:34.868Z,100469.06
2022-12-31T01:40:01.217Z,100473.59
2022-12-31T01:42:27.639Z,100471.22
2022-12-31T01:44:55.525Z,100473.09
2022-12-31T01:47:34.363Z,100474.44
2022-12-31T01:50:08.733Z,100471.25
2022-12-31T01:52:40.681Z,100468.03
2022-12-31T01:55:20.042Z,100469.69
2022-12-31T01:57:49.939Z,100479.59
2022-12-31T02:00:16.962Z,100485.78
2022-12-31T02:02:43.633Z,100490.63
2022-12-31T02:05:26.036Z,100495.97
2022-12-31T02:07:54.083Z,100495.16
2022-12-31T02:10:20.653Z,100495.44
2022-12-31T02:12:47.909Z,100480.16
2022-12-31T02:15:14.575Z,100468.63
2022-12-31T02:18:12.465Z,100463.00
2022-12-31T02:21:00.007Z,100456.84
2022-12-31T02:23:41.527Z,100456.31
2022-12-31T02:26:37.133Z,100471.63
2022-12-31T02:29:36.703Z,100458.22
2022-12-31T02:32:07.771Z,100449.09
2022-12-31T02:34:38.086Z,100437.56
2022-12-31T02:37:08.572Z,100425.50
2022-12-31T02:39:36.290Z,100428.19
2022-12-31T02:42:03.485Z,100438.09
2022-12-31T02:44:32.975Z,100432.75
2022-12-31T02:47:02.473Z,100436.00
2022-12-31T02:49:48.526Z,100451.56
2022-12-31T02:52:24.609Z,100459.59
2022-12-31T02:55:18.992Z,100467.41
2022-12-31T02:57:56.561Z,100474.09
2022-12-31T03:00:42.247Z,100478.38
2022-12-31T03:03:10.164Z,100485.38
2022-12-31T03:05:40.909Z,100489.94
2022-12-31T03:08:07.735Z,100497.44
2022-12-31T03:10:34.691Z,100504.41
2022-12-31T03:13:01.399Z,100509.25
2022-12-31T03:15:33.127Z,100493.44
2022-12-31T03:18:14.979Z,100495.59
2022-12-31T03:21:05.265Z,100495.03
2022-12-31T03:23:41.554Z,100496.13
2022-12-31T03:26:11.525Z,100493.72
2022-12-31T03:28:47.568Z,100494.81
2022-12-31T03:31:14.122Z,100509.28
2022-12-31T03:33:41.644Z,100502.31
2022-12-31T03:36:13.959Z,100493.22
2022-12-31T03:38:41.166Z,100497.78
2022-12-31T03:41:10.994Z,100495.38
2022-12-31T03:43:37.803Z,100497.25
2022-12-31T03:46:04.427Z,100491.09
2022-12-31T03:48:30.808Z,100495.94
2022-12-31T03:50:57.237Z,100474.75
2022-12-31T03:53:23.658Z,100483.06
2022-12-31T03:55:53.934Z,100483.38
2022-12-31T03:58:21.687Z,100486.31
2022-12-31T04:00:48.383Z,100482.84
2022-12-31T04:03:14.851Z,100483.38
2022-12-31T04:05:41.346Z,100478.31
2022-12-31T04:08:07.763Z,100473.50
2022-12-31T04:10:34.106Z,100486.06
2022-12-31T04:13:02.356Z,100468.38
2022-12-31T04:15:28.769Z,100468.69
2022-12-31T04:17:55.137Z,100466.28
2022-12-31T04:20:21.473Z,100455.03
2022-12-31T04:22:47.848Z,100455.28
2022-12-31T04:25:14.316Z,100450.75
2022-12-31T04:27:43.415Z,100444.88
2022-12-31T04:30:12.308Z,100440.59
2022-12-31T04:32:38.858Z,100444.34
2022-12-31T04:35:05.835Z,100462.56
2022-12-31T04:37:32.352Z,100454.81
2022-12-31T04:40:05.113Z,100462.06
2022-12-31T04:42:32.437Z,100467.66
2022-12-31T04:44:58.815Z,100460.69
2022-12-31T04:47:25.186Z,100461.53
2022-12-31T04:49:51.520Z,100462.84
2022-12-31T04:52:18.039Z,100465.53
2022-12-31T04:54:44.530Z,100465.81
2022-12-31T04:57:10.866Z,100464.75
2022-12-31T04:59:37.345Z,100465.53
2022-12-31T05:02:04.017Z,100478.13
2022-12-31T05:04:30.513Z,100455.91
2022-12-31T05:06:56.998Z,100459.09
2022-12-31T05:09:24.220Z,100469.81
2022-12-31T05:11:50.961Z,100484.81
2022-12-31T05:14:17.513Z,100476.50
2022-12-31T05:16:43.977Z,100458.03
2022-12-31T05:19:10.412Z,100478.91
2022-12-31T05:21:36.989Z,100474.63
2022-12-31T05:24:03.536Z,100462.06
2022-12-31T05:26:30.309Z,100470.09
2022-12-31T05:28:56.713Z,100474.09
2022-12-31T05:31:23.301Z,100471.13
2022-12-31T05:33:49.719Z,100475.94
2022-12-31T05:36:16.122Z,100472.72
2022-12-31T05:38:42.466Z,100487.97
2022-12-31T05:41:10.407Z,100485.53
2022-12-31T05:43:36.783Z,100482.31
2022-12-31T05:46:04.641Z,100483.38
2022-12-31T05:48:31.781Z,100485.47
2022-12-31T05:50:58.169Z,100484.38
2022-12-31T05:53:24.721Z,100482.75
2022-12-31T05:55:51.110Z,100474.97
2022-12-31T05:58:17.966Z,100484.31
2022-12-31T06:00:44.460Z,100474.16
2022-12-31T06:03:11.373Z,100476.81
2022-12-31T06:05:42.753Z,100480.81
2022-12-31T06:08:10.667Z,100473.84
2022-12-31T06:10:37.766Z,100475.44
2022-12-31T06:13:04.247Z,100473.00
2022-12-31T06:15:30.717Z,100478.38
2022-12-31T06:17:57.164Z,100485.03
2022-12-31T06:20:23.632Z,100486.66
2022-12-31T06:22:50.053Z,100486.34
2022-12-31T06:25:16.481Z,100489.31
2022-12-31T06:27:42.827Z,100479.06
2022-12-31T06:30:10.176Z,100486.34
2022-12-31T06:32:36.629Z,100486.56
2022-12-31T06:35:03.241Z,100494.34
2022-12-31T06:37:29.682Z,100494.06
2022-12-31T06:39:56.073Z,100501.03
2022-12-31T06:42:22.486Z,100512.00
2022-12-31T06:44:48.992Z,100509.53
2022-12-31T06:47:15.342Z,100517.03
2022-12-31T06:49:41.715Z,100520.50
2022-12-31T06:52:08.285Z,100514.56
2022-12-31T06:54:34.878Z,100516.94
2022-12-31T06:57:01.542Z,100522.00
2022-12-31T06:59:29.617Z,100511.25
2022-12-31T07:02:06.983Z,100504.75
2022-12-31T07:04:45.250Z,100500.16
2022-12-31T07:07:14.456Z,100499.53
2022-12-31T07:10:00.378Z,100502.47
2022-12-31T07:12:48.350Z,100497.06
2022-12-31T07:15:39.949Z,100494.03
2022-12-31T07:18:27.624Z,100492.09
2022-12-31T07:20:54.297Z,100497.41
2022-12-31T07:23:21.107Z,100489.59
2022-12-31T07:25:55.854Z,100494.13
2022-12-31T07:28:46.139Z,100495.94
2022-12-31T07:31:40.366Z,100499.91
2022-12-31T07:34:16.337Z,100500.41
2022-12-31T07:36:58.987Z,100502.81
2022-12-31T07:39:39.471Z,100515.38
2022-12-31T07:42:21.211Z,100522.34
2022-12-31T07:45:08.784Z,100515.25
2022-12-31T07:47:35.367Z,100513.84
2022-12-31T07:50:02.104Z,100515.97
2022-12-31T07:52:28.657Z,100524.56
2022-12-31T07:54:55.070Z,100514.84
2022-12-31T07:57:29.971Z,100539.25
2022-12-31T08:00:16.460Z,100543.22
2022-12-31T08:02:57.736Z,100534.09
2022-12-31T08:05:31.941Z,100531.63
2022-12-31T08:08:23.697Z,100530.63
2022-12-31T08:11:05.885Z,100554.81
2022-12-31T08:13:32.530Z,100541.38
2022-12-31T08:16:00.171Z,100527.31
2022-12-31T08:18:26.795Z,100543.69
2022-12-31T08:21:20.513Z,100540.75
2022-12-31T08:24:30.115Z,100549.13
2022-12-31T08:27:08.642Z,100544.06
2022-12-31T08:30:03.192Z,100536.00
2022-12-31T08:32:42.070Z,100550.50
2022-12-31T08:35:16.571Z,100563.66
2022-12-31T08:37:51.234Z,100573.09
2022-12-31T08:40:54.648Z,100591.91
2022-12-31T08:43:42.947Z,100595.66
2022-12-31T08:46:19.860Z,100601.03
2022-12-31T08:48:48.327Z,100610.19
2022-12-31T08:51:19.717Z,100613.19
2022-12-31T08:53:48.161Z,100627.16
2022-12-31T08:56:29.216Z,100630.38
2022-12-31T08:59:20.248Z,100633.63
2022-12-31T09:02:02.078Z,100650.84
2022-12-31T09:05:14.084Z,100644.16
2022-12-31T09:07:50.890Z,100649.78
2022-12-31T09:10:35.091Z,100648.72
2022-12-31T09:13:32.473Z,100662.97
2022-12-31T09:16:16.840Z,100654.06
2022-12-31T09:18:43.689Z,100648.16
2022-12-31T09:21:13.243Z,100666.66
2022-12-31T09:23:40.465Z,100671.47
2022-12-31T09:26:25.613Z,100676.28
2022-12-31T09:29:10.217Z,100679.72
2022-12-31T09:32:05.092Z,100665.94
2022-12-31T09:34:37.214Z,100666.19
2022-12-31T09:37:14.024Z,100672.59
2022-12-31T09:39:46.515Z,100661.03
2022-12-31T09:42:34.593Z,100657.22
2022-12-31T09:45:30.122Z,100668.69
2022-12-31T09:48:27.458Z,100667.31
2022-12-31T09:51:24.891Z,100679.13
2022-12-31T09:54:23.322Z,100680.66
2022-12-31T09:57:01.958Z,100680.91
2022-12-31T09:59:39.512Z,100687.34
2022-12-31T10:02:28.199Z,100677.38
2022-12-31T10:05:08.699Z,100685.19
2022-12-31T10:07:57.266Z,100694.25
2022-12-31T10:10:30.685Z,100682.38
2022-12-31T10:13:24.511Z,100679.84
2022-12-31T10:16:09.273Z,100673.81
2022-12-31T10:18:59.516Z,100672.38
2022-12-31T10:21:46.507Z,100678.50
2022-12-31T10:24:12.842Z,100688.91
2022-12-31T10:27:04.478Z,100675.94
2022-12-31T10:30:01.767Z,100683.44
2022-12-31T10:32:44.782Z,100685.28
2022-12-31T10:35:29.978Z,100688.69
2022-12-31T10:37:56.340Z,100700.19
2022-12-31T10:40:44.462Z,100705.00
2022-12-31T10:44:00.021Z,100702.34
2022-12-31T10:46:50.487Z,100683.72
2022-12-31T10:49:42.416Z,100701.78
2022-12-31T10:53:00.186Z,100704.47
2022-12-31T10:55:50.869Z,100694.81
2022-12-31T10:58:29.446Z,100672.44
2022-12-31T11:01:19.839Z,100693.63
2022-12-31T11:04:34.522Z,100685.06
2022-12-31T11:07:06.790Z,100692.09
2022-12-31T11:10:00.569Z,100696.47
2022-12-31T11:12:37.341Z,100689.78
2022-12-31T11:15:06.475Z,100705.13
2022-12-31T11:17:55.356Z,100707.22
2022-12-31T11:20:28.232Z,100681.13
2022-12-31T11:23:13.302Z,100691.03
2022-12-31T11:26:08.955Z,100684.81
2022-12-31T11:28:55.024Z,100680.31
2022-12-31T11:31:36.593Z,100683.59
2022-12-31T11:34:11.857Z,100690.06
2022-12-31T11:37:23.076Z,100687.09
2022-12-31T11:40:15.036Z,100699.75
2022-12-31T11:42:58.628Z,100692.78
2022-12-31T11:45:48.685Z,100699.75
2022-12-31T11:48:32.909Z,100679.78
2022-12-31T11:51:37.048Z,100708.31
2022-12-31T11:54:40.646Z,100701.28
2022-12-31T11:57:16.212Z,100701.22
2022-12-31T11:59:42.743Z,100696.59
2022-12-31T12:02:18.091Z,100720.22
2022-12-31T12:04:48.290Z,100689.72
2022-12-31T12:07:16.153Z,100687.47
2022-12-31T12:09:44.791Z,100684.19
2022-12-31T12:12:11.863Z,100661.25
2022-12-31T12:14:43.759Z,100680.81
2022-12-31T12:17:17.970Z,100671.94
2022-12-31T12:19:47.574Z,100676.81
2022-12-31T12:22:21.855Z,100680.59
2022-12-31T12:24:57.349Z,100675.00
2022-12-31T12:27:28.195Z,100687.47
2022-12-31T12:29:54.545Z,100675.59
2022-12-31T12:32:26.960Z,100668.81
2022-12-31T12:34:54.007Z,100691.38
2022-12-31T12:37:23.462Z,100676.00
2022-12-31T12:39:59.377Z,100681.13
2022-12-31T12:42:25.731Z,100669.06
2022-12-31T12:45:15.640Z,100662.06
2022-12-31T12:47:48.005Z,100671.50
2022-12-31T12:50:38.896Z,100666.44
2022-12-31T12:53:18.306Z,100680.19
2022-12-31T12:56:12.164Z,100674.81
2022-12-31T12:59:12.543Z,100668.22
2022-12-31T13:02:02.195Z,100694.59
2022-12-31T13:04:43.866Z,100695.22
2022-12-31T13:07:13.302Z,100696.56
2022-12-31T13:09:48.276Z,100682.28
2022-12-31T13:12:26.759Z,100695.75
2022-12-31T13:15:03.580Z,100689.19
2022-12-31T13:17:55.046Z,100696.97
2022-12-31T13:20:31.515Z,100708.94
2022-12-31T13:23:18.333Z,100703.31
2022-12-31T13:26:09.577Z,100696.06
2022-12-31T13:28:40.406Z,100704.13
2022-12-31T13:31:13.116Z,100714.31
2022-12-31T13:33:45.019Z,100705.72
2022-12-31T13:36:18.673Z,100713.88
2022-12-31T13:38:51.985Z,100711.19
2022-12-31T13:41:27.445Z,100720.16
2022-12-31T13:44:11.269Z,100714.56
2022-12-31T13:46:43.892Z,100719.63
2022-12-31T13:49:26.923Z,100726.41
2022-12-31T13:52:02.652Z,100718.03
2022-12-31T13:54:34.985Z,100718.53
2022-12-31T13:57:10.809Z,100723.13
2022-12-31T13:59:47.301Z,100726.09
2022-12-31T14:02:27.528Z,100713.72
2022-12-31T14:05:02.561Z,100711.84
2022-12-31T14:07:43.498Z,100718.53
2022-12-31T14:10:13.838Z,100727.13
2022-12-31T14:12:45.089Z,100709.88
2022-12-31T14:15:29.817Z,100709.06
2022-12-31T14:18:04.968Z,100707.50
2022-12-31T14:20:56.323Z,100711.56
2022-12-31T14:23:51.011Z,100714.03
2022-12-31T14:26:25.837Z,100711.03
2022-12-31T14:29:06.123Z,100731.72
2022-12-31T14:31:53.706Z,100753.28
2022-12-31T14:34:31.347Z,100752.25
2022-12-31T14:37:15.687Z,100749.63
2022-12-31T14:40:02.639Z,100765.31
2022-12-31T14:42:50.089Z,100755.16
2022-12-31T14:46:00.692Z,100747.69
2022-12-31T14:48:38.888Z,100747.97
2022-12-31T14:51:05.768Z,100747.19
2022-12-31T14:53:32.238Z,100754.72
2022-12-31T14:56:03.087Z,100763.13
2022-12-31T14:58:31.592Z,100753.13
2022-12-31T15:01:18.760Z,100775.41
2022-12-31T15:03:46.467Z,100775.41
2022-12-31T15:06:43.250Z,100771.63
2022-12-31T15:09:21.433Z,100770.88
2022-12-31T15:12:24.240Z,100780.63
2022-12-31T15:15:08.436Z,100774.09
2022-12-31T15:18:07.457Z,100768.72
2022-12-31T15:20:56.945Z,100757.44
2022-12-31T15:23:35.701Z,100746.00
2022-12-31T15:26:03.649Z,100757.84
2022-12-31T15:28:39.351Z,100753.00
2022-12-31T15:31:18.947Z,100760.06
2022-12-31T15:33:58.800Z,100745.53
2022-12-31T15:36:31.358Z,100733.88
2022-12-31T15:39:11.702Z,100738.09
2022-12-31T15:42:10.154Z,100725.38
2022-12-31T15:44:56.561Z,100720.44
2022-12-31T15:47:31.365Z,100730.91
2022-12-31T15:50:02.594Z,100733.91
2022-12-31T15:52:47.925Z,100735.22
2022-12-31T15:55:42.335Z,100736.25
2022-12-31T15:58:15.813Z,100732.72
2022-12-31T16:01:07.045Z,100728.06
2022-12-31T16:03:33.747Z,100747.94
2022-12-31T16:06:02.821Z,100729.31
2022-12-31T16:08:33.375Z,100737.38
2022-12-31T16:11:00.550Z,100732.09
2022-12-31T16:13:28.231Z,100738.84
2022-12-31T16:16:07.366Z,100726.97
2022-12-31T16:18:41.798Z,100745.47
2022-12-31T16:21:24.410Z,100745.25
2022-12-31T16:24:02.072Z,100737.59
2022-12-31T16:26:33.898Z,100728.72
2022-12-31T16:29:00.672Z,100715.97
2022-12-31T16:31:29.312Z,100716.19
2022-12-31T16:34:21.927Z,100707.16
2022-12-31T16:36:57.790Z,100714.47
2022-12-31T16:39:31.630Z,100727.94
2022-12-31T16:42:20.778Z,100713.06
2022-12-31T16:44:48.596Z,100716.84
2022-12-31T16:47:31.685Z,100730.31
2022-12-31T16:50:00.812Z,100715.75
2022-12-31T16:52:44.360Z,100723.53
2022-12-31T16:55:18.516Z,100715.66
2022-12-31T16:57:49.060Z,100714.88
2022-12-31T17:00:18.222Z,100721.81
2022-12-31T17:02:52.817Z,100719.47
2022-12-31T17:05:24.844Z,100700.38
2022-12-31T17:07:51.295Z,100704.84
2022-12-31T17:10:34.730Z,100704.13
2022-12-31T17:13:28.201Z,100705.44
2022-12-31T17:15:57.181Z,100718.63
2022-12-31T17:18:32.744Z,100727.44
2022-12-31T17:21:08.092Z,100714.97
2022-12-31T17:23:36.258Z,100702.13
2022-12-31T17:26:11.259Z,100694.09
2022-12-31T17:28:50.372Z,100695.03
2022-12-31T17:31:37.172Z,100713.88
2022-12-31T17:34:06.582Z,100691.75
2022-12-31T17:36:33.025Z,100688.28
2022-12-31T17:39:20.046Z,100704.72
2022-12-31T17:41:47.751Z,100700.72
2022-12-31T17:44:19.884Z,100702.97
2022-12-31T17:46:47.798Z,100687.81
2022-12-31T17:49:14.401Z,100691.56
2022-12-31T17:51:47.194Z,100712.50
2022-12-31T17:54:15.868Z,100702.16
2022-12-31T17:56:42.694Z,100715.03
2022-12-31T17:59:16.194Z,100724.00
2022-12-31T18:01:42.791Z,100714.53
2022-12-31T18:04:17.419Z,100720.34
2022-12-31T18:06:44.619Z,100697.06
2022-12-31T18:09:11.358Z,100717.44
2022-12-31T18:11:40.111Z,100711.53
2022-12-31T18:14:07.172Z,100723.56
2022-12-31T18:16:33.846Z,100715.47
2022-12-31T18:19:01.073Z,100725.47
2022-12-31T18:21:34.042Z,100711.91
2022-12-31T18:26:28.834Z,100708.13
2022-12-31T18:29:10.680Z,100710.66
2022-12-31T18:31:37.489Z,100699.84
2022-12-31T18:34:03.912Z,100709.00
2022-12-31T18:36:30.301Z,100710.59
2022-12-31T18:38:59.745Z,100712.63
2022-12-31T18:41:28.674Z,100703.19
2022-12-31T18:43:55.496Z,100721.31
2022-12-31T18:46:23.889Z,100729.50
2022-12-31T18:48:50.244Z,100712.25
2022-12-31T18:51:19.669Z,100717.94
2022-12-31T18:53:46.183Z,100725.44
2022-12-31T18:56:17.980Z,100727.78
2022-12-31T18:58:45.304Z,100721.88
2022-12-31T19:01:33.822Z,100733.88
2022-12-31T19:04:16.282Z,100718.00
2022-12-31T19:06:45.882Z,100724.78
2022-12-31T19:09:43.519Z,100722.44
2022-12-31T19:12:02.097Z,100741.03
2022-12-31T19:14:28.799Z,100750.63
2022-12-31T19:16:55.756Z,100752.03
2022-12-31T19:19:22.183Z,100751.44
2022-12-31T19:21:48.638Z,100744.94
2022-12-31T19:24:23.507Z,100750.69
2022-12-31T19:26:50.653Z,100740.72
2022-12-31T19:29:22.901Z,100750.69
2022-12-31T19:31:49.719Z,100757.47
2022-12-31T19:34:16.509Z,100741.88
2022-12-31T19:36:44.290Z,100730.91
2022-12-31T19:39:19.663Z,100738.09
2022-12-31T19:41:48.242Z,100744.88
2022-12-31T19:44:18.603Z,100746.91
2022-12-31T19:46:45.990Z,100732.06
2022-12-31T19:49:13.788Z,100738.91
2022-12-31T19:51:41.234Z,100739.50
2022-12-31T19:54:07.945Z,100743.06
2022-12-31T19:56:34.643Z,100748.75
2022-12-31T19:59:08.559Z,100755.44
2022-12-31T20:01:35.164Z,100756.69
2022-12-31T20:04:01.950Z,100762.06
2022-12-31T20:06:28.342Z,100758.28
2022-12-31T20:08:54.762Z,100752.28
2022-12-31T20:11:23.130Z,100761.41
2022-12-31T20:13:52.586Z,100758.28
2022-12-31T20:16:21.643Z,100770.66
2022-12-31T20:18:48.639Z,100749.84
2022-12-31T20:21:19.043Z,100759.97
2022-12-31T20:23:45.926Z,100763.06
2022-12-31T20:26:12.864Z,100761.41
2022-12-31T20:28:39.919Z,100780.25
2022-12-31T20:31:12.195Z,100779.09
2022-12-31T20:33:39.013Z,100743.47
2022-12-31T20:36:07.643Z,100775.91
2022-12-31T20:38:34.356Z,100759.81
2022-12-31T20:41:16.565Z,100759.53
2022-12-31T20:43:43.547Z,100760.53
2022-12-31T20:46:15.566Z,100777.78
2022-12-31T20:48:43.337Z,100775.09
2022-12-31T20:51:09.809Z,100800.16
2022-12-31T20:53:36.183Z,100779.38
2022-12-31T20:56:06.959Z,100777.25
2022-12-31T20:58:34.103Z,100773.72
2022-12-31T21:01:00.682Z,100776.78
2022-12-31T21:06:14.371Z,100778.81
2022-12-31T21:08:41.395Z,100776.09
2022-12-31T21:11:28.054Z,100776.03
2022-12-31T21:13:56.356Z,100785.78
2022-12-31T21:16:22.895Z,100790.81
2022-12-31T21:18:49.261Z,100787.09
2022-12-31T21:21:16.002Z,100780.63
2022-12-31T21:23:42.455Z,100791.41
2022-12-31T21:26:08.907Z,100795.69
2022-12-31T21:28:35.690Z,100793.91
2022-12-31T21:31:04.815Z,100805.00
2022-12-31T21:33:31.706Z,100809.88
2022-12-31T21:36:04.112Z,100812.78
2022-12-31T21:38:31.014Z,100817.03
2022-12-31T21:41:05.164Z,100835.31
2022-12-31T21:43:31.599Z,100827.00
2022-12-31T21:46:03.120Z,100822.78
2022-12-31T21:48:29.671Z,100826.13
2022-12-31T21:51:08.394Z,100826.00
2022-12-31T21:53:37.185Z,100823.22
2022-12-31T21:56:15.940Z,100823.81
2022-12-31T21:59:08.041Z,100817.81
2022-12-31T22:01:53.216Z,100811.66
2022-12-31T22:04:59.763Z,100834.31
2022-12-31T22:07:06.127Z,100830.78
2022-12-31T22:09:32.703Z,100822.44
2022-12-31T22:11:59.112Z,100825.69
2022-12-31T22:14:25.465Z,100821.84
2022-12-31T22:16:51.845Z,100807.78
2022-12-31T22:19:18.225Z,100821.69
2022-12-31T22:21:44.615Z,100816.09
2022-12-31T22:24:11.060Z,100826.06
2022-12-31T22:26:41.691Z,100830.66
2022-12-31T22:29:11.079Z,100822.31
2022-12-31T22:31:37.480Z,100820.75
2022-12-31T22:34:03.927Z,100818.41
2022-12-31T22:36:30.366Z,100826.28
2022-12-31T22:38:58.041Z,100835.75
2022-12-31T22:41:26.489Z,100811.44
2022-12-31T22:44:02.598Z,100832.69
2022-12-31T22:46:30.238Z,100826.72
2022-12-31T22:49:00.881Z,100827.28
2022-12-31T22:51:57.074Z,100841.56
2022-12-31T22:54:15.058Z,100828.84
2022-12-31T22:56:41.743Z,100844.03
2022-12-31T22:59:08.369Z,100849.88
2022-12-31T23:01:34.834Z,100850.66
2022-12-31T23:04:01.319Z,100853.00
2022-12-31T23:06:28.778Z,100838.78
2022-12-31T23:09:14.483Z,100844.78
2022-12-31T23:11:43.209Z,100873.63
2022-12-31T23:14:34.714Z,100843.09
2022-12-31T23:17:29.790Z,100849.59
2022-12-31T23:20:20.000Z,100856.88
2022-12-31T23:23:05.897Z,100875.25
2022-12-31T23:25:43.395Z,100882.75
2022-12-31T23:28:12.995Z,100898.97
2022-12-31T23:30:40.491Z,100881.88
2022-12-31T23:33:07.685Z,100887.03
2022-12-31T23:35:34.290Z,100888.13
2022-12-31T23:38:00.694Z,100881.41
2022-12-31T23:40:34.224Z,100884.94
2022-12-31T23:43:06.018Z,100877.56
2022-12-31T23:45:33.737Z,100882.44
2022-12-31T23:48:00.735Z,100886.44
2022-12-31T23:50:27.268Z,100893.06
2022-12-31T23:52:54.203Z,100910.06
2022-12-31T23:55:20.878Z,100891.63
2022-12-31T23:57:47.217Z,100900.81
